Sunset Acres, Louisiana
Current Conditions -  °F | °C
As of 6:56 PM on Tuesday 21 Oct 2014 (Local Time) from KSHV Reporting Station
Clear Clear  
Wind Chill: 75°   Ceiling: Unl
Heat Index: 75°   Visibility: 10mi
Dew Point: 61°   Wind: 5mph
Humidity: 62%   Direction: 10°N
Pressure: 30.02"   Gusts: NA
Location:  32.4407°N, 93.7892°W
Report Text: KSHV 212356Z 01004KT 10SM CLR 24/16 A3002 RMK AO2 SLP162 T02390161 10278 20239 55002
Loading
Personal Weather Stations






























Interactive Weather Map
Tropical Storm Tracking
New forecast layout! Learn more

10-Day Weather Forecast

Advertisements
Track Severe Weather on mobile